sensor_id;sensor_type;location;lat;lon;timestamp;temperature;humidity
12604;DHT22;6367;52.508;13.284;2023-02-11T00:00:14;7.60;94.50
12604;DHT22;6367;52.508;13.284;2023-02-11T00:02:40;7.60;94.60
12604;DHT22;6367;52.508;13.284;2023-02-11T00:05:06;7.70;94.60
12604;DHT22;6367;52.508;13.284;2023-02-11T00:07:32;7.70;94.60
12604;DHT22;6367;52.508;13.284;2023-02-11T00:09:58;7.70;94.60
12604;DHT22;6367;52.508;13.284;2023-02-11T00:12:24;7.60;94.60
12604;DHT22;6367;52.508;13.284;2023-02-11T00:14:50;7.60;94.60
12604;DHT22;6367;52.508;13.284;2023-02-11T00:17:16;7.70;94.60
12604;DHT22;6367;52.508;13.284;2023-02-11T00:19:42;7.70;94.50
12604;DHT22;6367;52.508;13.284;2023-02-11T00:22:08;7.70;94.50
12604;DHT22;6367;52.508;13.284;2023-02-11T00:24:35;7.60;94.60
12604;DHT22;6367;52.508;13.284;2023-02-11T00:27:01;8.00;94.90
12604;DHT22;6367;52.508;13.284;2023-02-11T00:29:26;7.60;94.90
12604;DHT22;6367;52.508;13.284;2023-02-11T00:31:52;7.70;94.70
12604;DHT22;6367;52.508;13.284;2023-02-11T00:34:18;7.70;94.80
12604;DHT22;6367;52.508;13.284;2023-02-11T00:36:43;7.70;94.70
12604;DHT22;6367;52.508;13.284;2023-02-11T00:39:09;7.70;94.80
12604;DHT22;6367;52.508;13.284;2023-02-11T00:41:35;7.70;94.90
12604;DHT22;6367;52.508;13.284;2023-02-11T00:44:01;7.70;94.80
12604;DHT22;6367;52.508;13.284;2023-02-11T00:46:27;7.70;94.80
12604;DHT22;6367;52.508;13.284;2023-02-11T00:48:53;7.70;95.30
12604;DHT22;6367;52.508;13.284;2023-02-11T00:51:26;7.70;95.00
12604;DHT22;6367;52.508;13.284;2023-02-11T00:53:53;8.10;95.20
12604;DHT22;6367;52.508;13.284;2023-02-11T00:56:18;7.70;95.10
12604;DHT22;6367;52.508;13.284;2023-02-11T00:58:44;7.70;95.10
12604;DHT22;6367;52.508;13.284;2023-02-11T01:01:11;7.70;95.20
12604;DHT22;6367;52.508;13.284;2023-02-11T01:03:37;7.80;95.10
12604;DHT22;6367;52.508;13.284;2023-02-11T01:06:04;7.80;95.10
12604;DHT22;6367;52.508;13.284;2023-02-11T01:08:30;7.80;95.10
12604;DHT22;6367;52.508;13.284;2023-02-11T01:11:09;8.40;95.40
12604;DHT22;6367;52.508;13.284;2023-02-11T01:13:37;7.90;95.10
12604;DHT22;6367;52.508;13.284;2023-02-11T01:16:05;7.80;95.20
12604;DHT22;6367;52.508;13.284;2023-02-11T01:18:32;7.80;95.20
12604;DHT22;6367;52.508;13.284;2023-02-11T01:20:57;7.90;95.40
12604;DHT22;6367;52.508;13.284;2023-02-11T01:23:23;8.40;95.70
12604;DHT22;6367;52.508;13.284;2023-02-11T01:25:49;7.90;95.50
12604;DHT22;6367;52.508;13.284;2023-02-11T01:28:19;7.90;95.40
12604;DHT22;6367;52.508;13.284;2023-02-11T01:30:45;7.90;95.40
12604;DHT22;6367;52.508;13.284;2023-02-11T01:33:11;7.90;95.30
12604;DHT22;6367;52.508;13.284;2023-02-11T01:35:38;7.90;95.30
12604;DHT22;6367;52.508;13.284;2023-02-11T01:38:05;8.10;95.40
12604;DHT22;6367;52.508;13.284;2023-02-11T01:40:31;8.10;95.50
12604;DHT22;6367;52.508;13.284;2023-02-11T01:42:56;8.00;95.40
12604;DHT22;6367;52.508;13.284;2023-02-11T01:48:34;8.00;95.40
12604;DHT22;6367;52.508;13.284;2023-02-11T01:51:05;8.00;95.30
12604;DHT22;6367;52.508;13.284;2023-02-11T01:53:34;8.10;95.30
12604;DHT22;6367;52.508;13.284;2023-02-11T01:56:19;8.10;95.30
12604;DHT22;6367;52.508;13.284;2023-02-11T01:59:09;8.20;95.40
12604;DHT22;6367;52.508;13.284;2023-02-11T02:01:37;8.00;95.50
12604;DHT22;6367;52.508;13.284;2023-02-11T02:04:06;8.00;95.60
12604;DHT22;6367;52.508;13.284;2023-02-11T02:06:37;8.00;95.60
12604;DHT22;6367;52.508;13.284;2023-02-11T02:09:19;8.10;95.70
12604;DHT22;6367;52.508;13.284;2023-02-11T02:11:46;8.20;95.70
12604;DHT22;6367;52.508;13.284;2023-02-11T02:14:12;8.10;95.70
12604;DHT22;6367;52.508;13.284;2023-02-11T02:16:38;8.10;95.90
12604;DHT22;6367;52.508;13.284;2023-02-11T02:25:29;8.20;95.90
12604;DHT22;6367;52.508;13.284;2023-02-11T02:31:08;8.70;96.30
12604;DHT22;6367;52.508;13.284;2023-02-11T02:33:46;8.30;96.10
12604;DHT22;6367;52.508;13.284;2023-02-11T02:36:27;8.80;96.40
12604;DHT22;6367;52.508;13.284;2023-02-11T02:39:11;8.80;96.30
12604;DHT22;6367;52.508;13.284;2023-02-11T02:41:41;8.30;96.20
12604;DHT22;6367;52.508;13.284;2023-02-11T02:44:07;8.40;96.10
12604;DHT22;6367;52.508;13.284;2023-02-11T02:46:34;9.00;96.30
12604;DHT22;6367;52.508;13.284;2023-02-11T02:49:00;8.40;96.10
12604;DHT22;6367;52.508;13.284;2023-02-11T02:51:31;8.40;96.20
12604;DHT22;6367;52.508;13.284;2023-02-11T02:56:54;8.40;96.30
12604;DHT22;6367;52.508;13.284;2023-02-11T02:59:42;8.50;96.30
12604;DHT22;6367;52.508;13.284;2023-02-11T03:07:57;8.50;96.40
12604;DHT22;6367;52.508;13.284;2023-02-11T03:13:25;8.40;96.50
12604;DHT22;6367;52.508;13.284;2023-02-11T03:15:55;8.50;96.60
12604;DHT22;6367;52.508;13.284;2023-02-11T03:18:24;8.50;96.60
12604;DHT22;6367;52.508;13.284;2023-02-11T03:20:52;8.40;96.70
12604;DHT22;6367;52.508;13.284;2023-02-11T03:25:56;8.60;96.70
12604;DHT22;6367;52.508;13.284;2023-02-11T03:31:12;8.60;96.80
12604;DHT22;6367;52.508;13.284;2023-02-11T03:36:48;8.60;96.80
12604;DHT22;6367;52.508;13.284;2023-02-11T03:39:21;8.80;97.00
12604;DHT22;6367;52.508;13.284;2023-02-11T03:41:49;8.60;96.90
12604;DHT22;6367;52.508;13.284;2023-02-11T03:44:16;8.60;97.00
12604;DHT22;6367;52.508;13.284;2023-02-11T03:46:48;8.50;97.00
12604;DHT22;6367;52.508;13.284;2023-02-11T03:49:16;8.50;97.10
12604;DHT22;6367;52.508;13.284;2023-02-11T03:51:44;8.40;97.50
12604;DHT22;6367;52.508;13.284;2023-02-11T03:54:14;8.40;97.30
12604;DHT22;6367;52.508;13.284;2023-02-11T03:57:00;8.40;97.40
12604;DHT22;6367;52.508;13.284;2023-02-11T03:59:26;8.40;97.40
12604;DHT22;6367;52.508;13.284;2023-02-11T04:01:52;8.90;97.50
12604;DHT22;6367;52.508;13.284;2023-02-11T04:04:18;8.50;97.40
12604;DHT22;6367;52.508;13.284;2023-02-11T04:06:43;8.50;97.50
12604;DHT22;6367;52.508;13.284;2023-02-11T04:09:10;8.50;97.50
12604;DHT22;6367;52.508;13.284;2023-02-11T04:11:36;8.90;97.70
12604;DHT22;6367;52.508;13.284;2023-02-11T04:14:02;8.60;97.60
12604;DHT22;6367;52.508;13.284;2023-02-11T04:16:27;8.60;97.60
12604;DHT22;6367;52.508;13.284;2023-02-11T04:18:55;8.60;97.50
12604;DHT22;6367;52.508;13.284;2023-02-11T04:21:21;8.60;97.70
12604;DHT22;6367;52.508;13.284;2023-02-11T04:23:47;8.60;97.70
12604;DHT22;6367;52.508;13.284;2023-02-11T04:26:13;8.60;97.70
12604;DHT22;6367;52.508;13.284;2023-02-11T04:28:39;8.60;97.80
12604;DHT22;6367;52.508;13.284;2023-02-11T04:31:04;8.60;97.90
12604;DHT22;6367;52.508;13.284;2023-02-11T04:33:30;8.60;98.00
12604;DHT22;6367;52.508;13.284;2023-02-11T04:35:56;8.70;98.00
12604;DHT22;6367;52.508;13.284;2023-02-11T04:38:21;8.70;98.00
12604;DHT22;6367;52.508;13.284;2023-02-11T04:40:49;8.70;98.00
12604;DHT22;6367;52.508;13.284;2023-02-11T04:43:14;9.30;98.40
12604;DHT22;6367;52.508;13.284;2023-02-11T04:45:40;8.80;98.30
12604;DHT22;6367;52.508;13.284;2023-02-11T04:48:06;8.70;98.30
12604;DHT22;6367;52.508;13.284;2023-02-11T04:50:31;9.40;98.70
12604;DHT22;6367;52.508;13.284;2023-02-11T04:52:57;8.70;98.50
12604;DHT22;6367;52.508;13.284;2023-02-11T04:55:23;8.80;98.50
12604;DHT22;6367;52.508;13.284;2023-02-11T04:57:48;8.60;99.10
12604;DHT22;6367;52.508;13.284;2023-02-11T05:00:14;8.60;98.80
12604;DHT22;6367;52.508;13.284;2023-02-11T05:02:40;8.60;98.90
12604;DHT22;6367;52.508;13.284;2023-02-11T05:05:06;8.50;99.00
12604;DHT22;6367;52.508;13.284;2023-02-11T05:07:32;8.60;99.10
12604;DHT22;6367;52.508;13.284;2023-02-11T05:09:57;8.50;99.10
12604;DHT22;6367;52.508;13.284;2023-02-11T05:12:23;8.50;99.20
12604;DHT22;6367;52.508;13.284;2023-02-11T05:14:49;8.50;99.20
12604;DHT22;6367;52.508;13.284;2023-02-11T05:17:14;8.50;99.40
12604;DHT22;6367;52.508;13.284;2023-02-11T05:19:41;8.60;99.40
12604;DHT22;6367;52.508;13.284;2023-02-11T05:22:07;8.60;99.50
12604;DHT22;6367;52.508;13.284;2023-02-11T05:24:33;8.60;99.70
12604;DHT22;6367;52.508;13.284;2023-02-11T05:27:00;8.60;99.60
12604;DHT22;6367;52.508;13.284;2023-02-11T05:29:26;8.70;99.70
12604;DHT22;6367;52.508;13.284;2023-02-11T05:31:52;8.60;99.80
12604;DHT22;6367;52.508;13.284;2023-02-11T05:34:18;8.60;99.80
12604;DHT22;6367;52.508;13.284;2023-02-11T05:36:43;8.70;99.90
12604;DHT22;6367;52.508;13.284;2023-02-11T05:39:09;8.60;99.90
12604;DHT22;6367;52.508;13.284;2023-02-11T05:41:35;8.70;99.90
12604;DHT22;6367;52.508;13.284;2023-02-11T05:44:00;8.80;99.90
12604;DHT22;6367;52.508;13.284;2023-02-11T05:46:26;8.80;99.90
12604;DHT22;6367;52.508;13.284;2023-02-11T05:48:52;8.80;99.90
12604;DHT22;6367;52.508;13.284;2023-02-11T05:51:17;9.00;99.90
12604;DHT22;6367;52.508;13.284;2023-02-11T05:53:43;9.30;99.90
12604;DHT22;6367;52.508;13.284;2023-02-11T05:56:08;8.70;99.90
12604;DHT22;6367;52.508;13.284;2023-02-11T05:58:35;8.80;99.90
12604;DHT22;6367;52.508;13.284;2023-02-11T06:01:00;8.70;99.90
12604;DHT22;6367;52.508;13.284;2023-02-11T06:03:26;8.80;99.90
12604;DHT22;6367;52.508;13.284;2023-02-11T06:05:51;8.80;99.90
12604;DHT22;6367;52.508;13.284;2023-02-11T06:08:17;9.00;99.90
12604;DHT22;6367;52.508;13.284;2023-02-11T06:10:46;8.80;99.90
12604;DHT22;6367;52.508;13.284;2023-02-11T06:13:11;9.40;99.90
12604;DHT22;6367;52.508;13.284;2023-02-11T06:15:38;8.90;99.90
12604;DHT22;6367;52.508;13.284;2023-02-11T06:18:03;8.80;99.90
12604;DHT22;6367;52.508;13.284;2023-02-11T06:20:29;8.80;99.90
12604;DHT22;6367;52.508;13.284;2023-02-11T06:22:55;8.80;99.90
12604;DHT22;6367;52.508;13.284;2023-02-11T06:25:20;8.80;99.90
12604;DHT22;6367;52.508;13.284;2023-02-11T06:27:46;8.80;99.90
12604;DHT22;6367;52.508;13.284;2023-02-11T06:30:12;8.90;99.90
12604;DHT22;6367;52.508;13.284;2023-02-11T06:32:38;8.90;99.90
12604;DHT22;6367;52.508;13.284;2023-02-11T06:35:04;8.90;99.90
12604;DHT22;6367;52.508;13.284;2023-02-11T06:37:30;8.90;99.90
12604;DHT22;6367;52.508;13.284;2023-02-11T06:39:55;8.90;99.90
12604;DHT22;6367;52.508;13.284;2023-02-11T06:42:21;8.90;99.90
12604;DHT22;6367;52.508;13.284;2023-02-11T06:44:47;8.90;99.90
12604;DHT22;6367;52.508;13.284;2023-02-11T06:47:12;8.90;99.90
12604;DHT22;6367;52.508;13.284;2023-02-11T06:49:38;8.90;99.90
12604;DHT22;6367;52.508;13.284;2023-02-11T06:52:04;9.20;99.90
12604;DHT22;6367;52.508;13.284;2023-02-11T06:54:29;9.40;99.90
12604;DHT22;6367;52.508;13.284;2023-02-11T06:56:55;9.00;99.90
12604;DHT22;6367;52.508;13.284;2023-02-11T06:59:20;9.00;99.90
12604;DHT22;6367;52.508;13.284;2023-02-11T07:01:47;8.90;99.90
12604;DHT22;6367;52.508;13.284;2023-02-11T07:04:13;9.00;99.90
12604;DHT22;6367;52.508;13.284;2023-02-11T07:06:41;9.00;99.90
12604;DHT22;6367;52.508;13.284;2023-02-11T07:09:07;8.90;99.90
12604;DHT22;6367;52.508;13.284;2023-02-11T07:11:33;9.00;99.90
12604;DHT22;6367;52.508;13.284;2023-02-11T07:14:06;8.90;99.90
12604;DHT22;6367;52.508;13.284;2023-02-11T07:16:35;9.00;99.90
12604;DHT22;6367;52.508;13.284;2023-02-11T07:19:01;9.00;99.90
12604;DHT22;6367;52.508;13.284;2023-02-11T07:21:26;8.90;99.90
12604;DHT22;6367;52.508;13.284;2023-02-11T07:23:52;9.00;99.90
12604;DHT22;6367;52.508;13.284;2023-02-11T07:26:21;9.00;99.90
12604;DHT22;6367;52.508;13.284;2023-02-11T07:28:48;9.00;99.90
12604;DHT22;6367;52.508;13.284;2023-02-11T07:31:19;9.60;99.90
12604;DHT22;6367;52.508;13.284;2023-02-11T07:33:46;9.00;99.90
12604;DHT22;6367;52.508;13.284;2023-02-11T07:36:13;9.00;99.90
12604;DHT22;6367;52.508;13.284;2023-02-11T07:38:39;9.10;99.90
12604;DHT22;6367;52.508;13.284;2023-02-11T07:41:07;9.10;99.90
12604;DHT22;6367;52.508;13.284;2023-02-11T07:43:34;9.20;99.90
12604;DHT22;6367;52.508;13.284;2023-02-11T07:46:05;9.20;99.90
12604;DHT22;6367;52.508;13.284;2023-02-11T07:48:31;9.30;99.90
12604;DHT22;6367;52.508;13.284;2023-02-11T07:53:31;9.40;99.90
12604;DHT22;6367;52.508;13.284;2023-02-11T07:55:57;9.40;99.90
12604;DHT22;6367;52.508;13.284;2023-02-11T07:58:23;9.30;99.90
12604;DHT22;6367;52.508;13.284;2023-02-11T08:00:48;9.30;99.90
12604;DHT22;6367;52.508;13.284;2023-02-11T08:03:14;9.40;99.90
12604;DHT22;6367;52.508;13.284;2023-02-11T08:05:39;9.50;99.90
12604;DHT22;6367;52.508;13.284;2023-02-11T08:08:05;9.50;99.90
12604;DHT22;6367;52.508;13.284;2023-02-11T08:10:31;9.40;99.90
12604;DHT22;6367;52.508;13.284;2023-02-11T08:12:56;9.50;99.90
12604;DHT22;6367;52.508;13.284;2023-02-11T08:15:22;9.50;99.90
12604;DHT22;6367;52.508;13.284;2023-02-11T08:17:48;9.90;99.90
12604;DHT22;6367;52.508;13.284;2023-02-11T08:20:13;9.60;99.90
12604;DHT22;6367;52.508;13.284;2023-02-11T08:22:39;9.70;99.90
12604;DHT22;6367;52.508;13.284;2023-02-11T08:25:05;9.60;99.90
12604;DHT22;6367;52.508;13.284;2023-02-11T08:27:31;9.60;99.90
12604;DHT22;6367;52.508;13.284;2023-02-11T08:29:57;9.60;99.90
12604;DHT22;6367;52.508;13.284;2023-02-11T08:32:24;9.70;99.90
12604;DHT22;6367;52.508;13.284;2023-02-11T08:34:50;9.70;99.90
12604;DHT22;6367;52.508;13.284;2023-02-11T08:37:17;9.70;99.90
12604;DHT22;6367;52.508;13.284;2023-02-11T08:39:43;9.70;99.90
12604;DHT22;6367;52.508;13.284;2023-02-11T08:42:09;9.70;99.90
12604;DHT22;6367;52.508;13.284;2023-02-11T08:44:34;9.80;99.90
12604;DHT22;6367;52.508;13.284;2023-02-11T08:47:00;9.70;99.90
12604;DHT22;6367;52.508;13.284;2023-02-11T08:49:25;9.70;99.90
12604;DHT22;6367;52.508;13.284;2023-02-11T08:51:51;9.70;99.90
12604;DHT22;6367;52.508;13.284;2023-02-11T08:54:18;9.70;99.90
12604;DHT22;6367;52.508;13.284;2023-02-11T08:56:44;9.70;99.90
12604;DHT22;6367;52.508;13.284;2023-02-11T08:59:12;9.70;99.90
12604;DHT22;6367;52.508;13.284;2023-02-11T09:01:38;9.80;99.90
12604;DHT22;6367;52.508;13.284;2023-02-11T09:04:04;9.70;99.90
12604;DHT22;6367;52.508;13.284;2023-02-11T09:06:30;9.70;99.90
12604;DHT22;6367;52.508;13.284;2023-02-11T09:08:56;9.70;99.90
12604;DHT22;6367;52.508;13.284;2023-02-11T09:11:29;9.80;99.90
12604;DHT22;6367;52.508;13.284;2023-02-11T09:13:56;9.70;99.90
12604;DHT22;6367;52.508;13.284;2023-02-11T09:16:27;9.80;99.90
12604;DHT22;6367;52.508;13.284;2023-02-11T09:18:55;9.80;99.90
12604;DHT22;6367;52.508;13.284;2023-02-11T09:21:21;9.70;99.90
12604;DHT22;6367;52.508;13.284;2023-02-11T09:23:47;9.80;99.90
12604;DHT22;6367;52.508;13.284;2023-02-11T09:26:18;9.90;99.90
12604;DHT22;6367;52.508;13.284;2023-02-11T09:28:44;9.80;99.90
12604;DHT22;6367;52.508;13.284;2023-02-11T09:31:12;9.80;99.90
12604;DHT22;6367;52.508;13.284;2023-02-11T09:33:40;9.80;99.90
12604;DHT22;6367;52.508;13.284;2023-02-11T09:36:15;9.80;99.90
12604;DHT22;6367;52.508;13.284;2023-02-11T09:38:42;9.90;99.90
12604;DHT22;6367;52.508;13.284;2023-02-11T09:44:08;9.80;99.90
12604;DHT22;6367;52.508;13.284;2023-02-11T09:46:39;9.80;99.90
12604;DHT22;6367;52.508;13.284;2023-02-11T09:49:05;9.80;99.90
12604;DHT22;6367;52.508;13.284;2023-02-11T09:51:43;9.80;99.90
12604;DHT22;6367;52.508;13.284;2023-02-11T09:56:55;9.90;99.90
12604;DHT22;6367;52.508;13.284;2023-02-11T09:59:21;10.00;99.90
12604;DHT22;6367;52.508;13.284;2023-02-11T10:11:20;10.10;99.90
12604;DHT22;6367;52.508;13.284;2023-02-11T10:16:31;10.20;99.90
12604;DHT22;6367;52.508;13.284;2023-02-11T10:24:23;10.10;99.90
12604;DHT22;6367;52.508;13.284;2023-02-11T10:26:51;10.10;99.90
12604;DHT22;6367;52.508;13.284;2023-02-11T10:29:39;10.00;99.90
12604;DHT22;6367;52.508;13.284;2023-02-11T10:35:02;10.10;99.90
12604;DHT22;6367;52.508;13.284;2023-02-11T10:37:29;10.10;99.90
12604;DHT22;6367;52.508;13.284;2023-02-11T10:39:55;10.10;99.90
12604;DHT22;6367;52.508;13.284;2023-02-11T10:42:20;10.10;99.90
12604;DHT22;6367;52.508;13.284;2023-02-11T10:45:06;10.10;99.90
12604;DHT22;6367;52.508;13.284;2023-02-11T10:47:35;10.10;99.90
12604;DHT22;6367;52.508;13.284;2023-02-11T10:50:27;10.20;99.90
12604;DHT22;6367;52.508;13.284;2023-02-11T10:53:19;10.20;99.90
12604;DHT22;6367;52.508;13.284;2023-02-11T10:55:56;10.20;99.90
12604;DHT22;6367;52.508;13.284;2023-02-11T10:58:27;10.20;99.90
12604;DHT22;6367;52.508;13.284;2023-02-11T11:00:56;10.10;99.90
12604;DHT22;6367;52.508;13.284;2023-02-11T11:03:25;10.20;99.90
12604;DHT22;6367;52.508;13.284;2023-02-11T11:05:57;10.20;99.90
12604;DHT22;6367;52.508;13.284;2023-02-11T11:08:48;10.30;99.90
12604;DHT22;6367;52.508;13.284;2023-02-11T11:11:22;10.20;99.90
12604;DHT22;6367;52.508;13.284;2023-02-11T11:21:53;10.30;99.90
12604;DHT22;6367;52.508;13.284;2023-02-11T11:24:32;10.30;99.90
12604;DHT22;6367;52.508;13.284;2023-02-11T11:27:03;10.20;99.90
12604;DHT22;6367;52.508;13.284;2023-02-11T11:29:44;10.30;99.90
12604;DHT22;6367;52.508;13.284;2023-02-11T11:32:17;10.30;99.90
12604;DHT22;6367;52.508;13.284;2023-02-11T11:34:49;10.20;99.90
12604;DHT22;6367;52.508;13.284;2023-02-11T11:37:27;10.30;99.90
12604;DHT22;6367;52.508;13.284;2023-02-11T11:42:34;10.30;99.90
12604;DHT22;6367;52.508;13.284;2023-02-11T11:47:55;10.30;99.90
12604;DHT22;6367;52.508;13.284;2023-02-11T11:50:47;10.30;99.90
12604;DHT22;6367;52.508;13.284;2023-02-11T11:53:44;10.20;99.90
12604;DHT22;6367;52.508;13.284;2023-02-11T11:56:22;10.30;99.90
12604;DHT22;6367;52.508;13.284;2023-02-11T11:58:49;10.30;99.90
12604;DHT22;6367;52.508;13.284;2023-02-11T12:09:18;10.30;99.90
12604;DHT22;6367;52.508;13.284;2023-02-11T12:15:01;10.40;99.90
12604;DHT22;6367;52.508;13.284;2023-02-11T12:17:36;10.40;99.90
12604;DHT22;6367;52.508;13.284;2023-02-11T12:26:18;10.50;99.90
12604;DHT22;6367;52.508;13.284;2023-02-11T12:28:51;10.50;99.90
12604;DHT22;6367;52.508;13.284;2023-02-11T12:53:31;10.60;99.90
12604;DHT22;6367;52.508;13.284;2023-02-11T12:55:59;10.60;99.90
12604;DHT22;6367;52.508;13.284;2023-02-11T12:58:30;10.60;99.90
12604;DHT22;6367;52.508;13.284;2023-02-11T13:01:07;10.60;99.90
12604;DHT22;6367;52.508;13.284;2023-02-11T13:06:47;10.80;99.90
12604;DHT22;6367;52.508;13.284;2023-02-11T13:09:26;10.70;99.90
12604;DHT22;6367;52.508;13.284;2023-02-11T13:11:57;10.80;99.90
12604;DHT22;6367;52.508;13.284;2023-02-11T13:14:43;10.80;99.90
12604;DHT22;6367;52.508;13.284;2023-02-11T13:17:19;10.70;99.90
12604;DHT22;6367;52.508;13.284;2023-02-11T13:20:02;10.70;99.90
12604;DHT22;6367;52.508;13.284;2023-02-11T13:22:38;10.80;99.90
12604;DHT22;6367;52.508;13.284;2023-02-11T13:25:22;10.70;99.90
12604;DHT22;6367;52.508;13.284;2023-02-11T13:27:55;10.70;99.90
12604;DHT22;6367;52.508;13.284;2023-02-11T13:30:31;10.70;99.90
12604;DHT22;6367;52.508;13.284;2023-02-11T13:35:40;10.80;99.90
12604;DHT22;6367;52.508;13.284;2023-02-11T13:38:23;10.80;99.90
12604;DHT22;6367;52.508;13.284;2023-02-11T13:43:34;10.90;99.90
12604;DHT22;6367;52.508;13.284;2023-02-11T13:46:06;10.90;99.90
12604;DHT22;6367;52.508;13.284;2023-02-11T13:48:37;10.90;99.90
12604;DHT22;6367;52.508;13.284;2023-02-11T13:51:08;10.80;99.90
12604;DHT22;6367;52.508;13.284;2023-02-11T13:53:56;10.60;99.90
12604;DHT22;6367;52.508;13.284;2023-02-11T13:58:55;10.80;99.90
12604;DHT22;6367;52.508;13.284;2023-02-11T14:04:32;10.90;99.90
12604;DHT22;6367;52.508;13.284;2023-02-11T14:07:27;10.90;99.90
12604;DHT22;6367;52.508;13.284;2023-02-11T14:16:16;10.90;99.90
12604;DHT22;6367;52.508;13.284;2023-02-11T14:21:31;10.90;99.90
12604;DHT22;6367;52.508;13.284;2023-02-11T14:26:58;11.00;99.90
12604;DHT22;6367;52.508;13.284;2023-02-11T14:33:01;11.00;99.90
12604;DHT22;6367;52.508;13.284;2023-02-11T14:41:46;10.90;99.90
12604;DHT22;6367;52.508;13.284;2023-02-11T14:43:46;10.90;99.90
12604;DHT22;6367;52.508;13.284;2023-02-11T14:46:17;10.90;99.90
12604;DHT22;6367;52.508;13.284;2023-02-11T14:48:46;11.00;99.90
12604;DHT22;6367;52.508;13.284;2023-02-11T14:51:18;11.00;99.90
12604;DHT22;6367;52.508;13.284;2023-02-11T14:53:48;11.10;99.90
12604;DHT22;6367;52.508;13.284;2023-02-11T14:56:23;11.10;99.90
12604;DHT22;6367;52.508;13.284;2023-02-11T14:58:51;11.00;99.90
12604;DHT22;6367;52.508;13.284;2023-02-11T15:01:27;11.00;99.90
12604;DHT22;6367;52.508;13.284;2023-02-11T15:04:05;11.00;99.90
12604;DHT22;6367;52.508;13.284;2023-02-11T15:06:38;11.00;99.90
12604;DHT22;6367;52.508;13.284;2023-02-11T15:09:24;11.00;99.90
12604;DHT22;6367;52.508;13.284;2023-02-11T15:11:55;11.00;99.90
12604;DHT22;6367;52.508;13.284;2023-02-11T15:14:22;11.00;99.90
12604;DHT22;6367;52.508;13.284;2023-02-11T15:16:49;11.00;99.90
12604;DHT22;6367;52.508;13.284;2023-02-11T15:19:38;10.90;99.90
12604;DHT22;6367;52.508;13.284;2023-02-11T15:22:14;10.90;99.90
12604;DHT22;6367;52.508;13.284;2023-02-11T15:24:45;11.00;99.90
12604;DHT22;6367;52.508;13.284;2023-02-11T15:27:21;10.90;99.90
12604;DHT22;6367;52.508;13.284;2023-02-11T15:29:50;10.90;99.90
12604;DHT22;6367;52.508;13.284;2023-02-11T15:32:23;11.00;99.90
12604;DHT22;6367;52.508;13.284;2023-02-11T15:34:51;10.90;99.90
12604;DHT22;6367;52.508;13.284;2023-02-11T15:37:24;11.00;99.90
12604;DHT22;6367;52.508;13.284;2023-02-11T15:39:51;11.00;99.90
12604;DHT22;6367;52.508;13.284;2023-02-11T15:42:22;11.10;99.90
12604;DHT22;6367;52.508;13.284;2023-02-11T15:45:06;11.00;99.90
12604;DHT22;6367;52.508;13.284;2023-02-11T15:47:33;11.00;99.90
12604;DHT22;6367;52.508;13.284;2023-02-11T15:49:58;11.10;99.90
12604;DHT22;6367;52.508;13.284;2023-02-11T15:52:25;11.70;99.90
12604;DHT22;6367;52.508;13.284;2023-02-11T15:54:53;11.10;99.90
12604;DHT22;6367;52.508;13.284;2023-02-11T15:57:21;11.10;99.90
12604;DHT22;6367;52.508;13.284;2023-02-11T15:59:50;10.80;99.90
12604;DHT22;6367;52.508;13.284;2023-02-11T16:02:38;11.00;99.90
12604;DHT22;6367;52.508;13.284;2023-02-11T16:07:56;10.90;99.90
12604;DHT22;6367;52.508;13.284;2023-02-11T16:10:29;10.90;99.90
12604;DHT22;6367;52.508;13.284;2023-02-11T16:18:00;11.00;99.90
12604;DHT22;6367;52.508;13.284;2023-02-11T16:20:26;11.00;99.90
12604;DHT22;6367;52.508;13.284;2023-02-11T16:22:53;11.60;99.90
12604;DHT22;6367;52.508;13.284;2023-02-11T16:25:19;11.00;99.90
12604;DHT22;6367;52.508;13.284;2023-02-11T16:27:51;11.00;99.90
12604;DHT22;6367;52.508;13.284;2023-02-11T16:30:28;11.00;99.90
12604;DHT22;6367;52.508;13.284;2023-02-11T16:32:56;11.00;99.90
12604;DHT22;6367;52.508;13.284;2023-02-11T16:35:22;11.50;99.90
12604;DHT22;6367;52.508;13.284;2023-02-11T16:37:48;11.00;99.90
12604;DHT22;6367;52.508;13.284;2023-02-11T16:40:13;11.00;99.90
12604;DHT22;6367;52.508;13.284;2023-02-11T16:42:39;11.00;99.90
12604;DHT22;6367;52.508;13.284;2023-02-11T16:45:05;11.00;99.90
12604;DHT22;6367;52.508;13.284;2023-02-11T16:47:33;11.00;99.90
12604;DHT22;6367;52.508;13.284;2023-02-11T16:50:01;11.00;99.90
12604;DHT22;6367;52.508;13.284;2023-02-11T16:52:27;11.10;99.90
12604;DHT22;6367;52.508;13.284;2023-02-11T16:54:55;11.10;99.90
12604;DHT22;6367;52.508;13.284;2023-02-11T16:57:23;11.10;99.90
12604;DHT22;6367;52.508;13.284;2023-02-11T16:59:50;11.00;99.90
12604;DHT22;6367;52.508;13.284;2023-02-11T17:04:50;11.00;99.90
12604;DHT22;6367;52.508;13.284;2023-02-11T17:07:16;10.90;99.90
12604;DHT22;6367;52.508;13.284;2023-02-11T17:09:42;11.00;99.90
12604;DHT22;6367;52.508;13.284;2023-02-11T17:12:07;11.10;99.90
12604;DHT22;6367;52.508;13.284;2023-02-11T17:14:33;11.00;99.90
12604;DHT22;6367;52.508;13.284;2023-02-11T17:16:59;11.00;99.90
12604;DHT22;6367;52.508;13.284;2023-02-11T17:19:26;11.00;99.90
12604;DHT22;6367;52.508;13.284;2023-02-11T17:21:52;11.10;99.90
12604;DHT22;6367;52.508;13.284;2023-02-11T17:24:19;11.00;99.90
12604;DHT22;6367;52.508;13.284;2023-02-11T17:26:45;11.00;99.90
12604;DHT22;6367;52.508;13.284;2023-02-11T17:29:14;11.10;99.90
12604;DHT22;6367;52.508;13.284;2023-02-11T17:31:39;11.00;99.90
12604;DHT22;6367;52.508;13.284;2023-02-11T17:34:05;11.00;99.90
12604;DHT22;6367;52.508;13.284;2023-02-11T17:36:31;11.00;99.90
12604;DHT22;6367;52.508;13.284;2023-02-11T17:38:58;11.00;99.90
12604;DHT22;6367;52.508;13.284;2023-02-11T17:41:24;11.00;99.90
12604;DHT22;6367;52.508;13.284;2023-02-11T17:43:51;11.00;99.90
12604;DHT22;6367;52.508;13.284;2023-02-11T17:46:17;11.10;99.90
12604;DHT22;6367;52.508;13.284;2023-02-11T17:48:42;11.10;99.90
12604;DHT22;6367;52.508;13.284;2023-02-11T17:51:33;11.10;99.90
12604;DHT22;6367;52.508;13.284;2023-02-11T17:54:01;11.00;99.90
12604;DHT22;6367;52.508;13.284;2023-02-11T17:56:28;11.00;99.90
12604;DHT22;6367;52.508;13.284;2023-02-11T17:58:56;11.10;99.90
12604;DHT22;6367;52.508;13.284;2023-02-11T18:01:21;10.40;99.90
12604;DHT22;6367;52.508;13.284;2023-02-11T18:03:47;11.10;99.90
12604;DHT22;6367;52.508;13.284;2023-02-11T18:06:16;11.10;99.90
12604;DHT22;6367;52.508;13.284;2023-02-11T18:08:42;11.10;99.90
12604;DHT22;6367;52.508;13.284;2023-02-11T18:11:09;11.10;99.90
12604;DHT22;6367;52.508;13.284;2023-02-11T18:13:35;11.20;99.90
12604;DHT22;6367;52.508;13.284;2023-02-11T18:16:02;11.10;99.90
12604;DHT22;6367;52.508;13.284;2023-02-11T18:18:28;11.10;99.90
12604;DHT22;6367;52.508;13.284;2023-02-11T18:20:58;11.10;99.90
12604;DHT22;6367;52.508;13.284;2023-02-11T18:23:25;11.20;99.90
12604;DHT22;6367;52.508;13.284;2023-02-11T18:25:51;11.10;99.90
12604;DHT22;6367;52.508;13.284;2023-02-11T18:28:17;11.10;99.90
12604;DHT22;6367;52.508;13.284;2023-02-11T18:30:43;11.10;99.90